createdAt,value
2018-03-08T06:39:58.075Z,29.91
2018-03-08T06:41:07.033Z,29.24
2018-03-08T06:42:15.946Z,29.24
2018-03-08T06:43:24.888Z,29.34
2018-03-08T06:44:34.329Z,29.43
2018-03-08T06:45:43.257Z,29.55
2018-03-08T06:46:52.247Z,29.35
2018-03-08T06:48:01.481Z,29.55
2018-03-08T06:49:10.648Z,29.45
2018-03-08T06:50:19.562Z,29.45
2018-03-08T06:51:28.269Z,29.55
2018-03-08T06:52:37.505Z,29.35
2018-03-08T06:53:46.691Z,29.25
2018-03-08T06:54:55.357Z,29.16
2018-03-08T06:56:04.587Z,29.16
2018-03-08T06:57:13.532Z,29.16
2018-03-08T06:58:22.796Z,29.25
2018-03-08T06:59:31.712Z,29.35
2018-03-08T07:00:41.424Z,29.25
2018-03-08T07:01:50.917Z,29.25
2018-03-08T07:03:00.138Z,29.45
2018-03-08T07:04:08.791Z,29.25
2018-03-08T07:05:17.429Z,29.55
2018-03-08T07:06:26.076Z,29.27
2018-03-08T07:07:35.521Z,29.55
2018-03-08T07:08:44.457Z,29.25
2018-03-08T07:09:53.411Z,29.45
2018-03-08T07:11:02.528Z,29.55
2018-03-08T07:12:12.222Z,29.83
2018-03-08T07:13:21.144Z,29.25
2018-03-08T07:14:30.059Z,29.35
2018-03-08T07:15:38.974Z,29.74
2018-03-08T07:16:48.104Z,29.64
2018-03-08T07:17:56.804Z,29.45
2018-03-08T07:19:05.700Z,29.85
2018-03-08T07:20:14.617Z,29.74
2018-03-08T07:21:23.786Z,29.74
2018-03-08T07:22:32.981Z,29.74
2018-03-08T07:23:42.136Z,29.83
2018-03-08T07:24:51.836Z,29.55
2018-03-08T07:26:01.016Z,29.93
2018-03-08T07:27:10.454Z,29.83
2018-03-08T07:28:19.666Z,30.03
2018-03-08T07:29:28.857Z,29.93
2018-03-08T07:30:38.329Z,30.32
2018-03-08T07:31:47.500Z,30.32
2018-03-08T07:32:56.765Z,30.22
2018-03-08T07:34:05.482Z,30.21
2018-03-08T07:35:14.781Z,30.22
2018-03-08T07:36:23.416Z,30.03
2018-03-08T07:37:33.156Z,30.3
2018-03-08T07:38:42.855Z,30.4
2018-03-08T07:39:51.794Z,30.49
2018-03-08T07:41:00.517Z,30.49
2018-03-08T07:42:09.783Z,30.4
2018-03-08T07:43:18.515Z,30.49
2018-03-08T07:44:27.457Z,30.69
2018-03-08T07:45:36.662Z,30.59
2018-03-08T07:46:46.101Z,30.79
2018-03-08T07:47:55.519Z,30.59
2018-03-08T07:49:04.427Z,30.79
2018-03-08T07:50:13.852Z,30.69
2018-03-08T07:51:23.289Z,30.88
2018-03-08T07:52:32.513Z,31.07
2018-03-08T07:53:41.415Z,30.98
2018-03-08T07:54:50.596Z,30.88
2018-03-08T07:55:59.503Z,30.98
2018-03-08T07:57:08.180Z,30.96
2018-03-08T07:58:17.392Z,31.25
2018-03-08T07:59:26.555Z,31.06
2018-03-08T08:00:35.980Z,31.25
2018-03-08T08:01:45.483Z,31.25
2018-03-08T08:02:54.706Z,31.15
2018-03-08T08:04:04.395Z,31.35
2018-03-08T08:05:13.845Z,31.25
2018-03-08T08:06:22.504Z,31.25
2018-03-08T08:07:31.449Z,31.35
2018-03-08T08:08:40.107Z,31.25
2018-03-08T08:09:49.644Z,31.25
2018-03-08T08:10:58.837Z,31.25
2018-03-08T08:12:07.496Z,31.25
2018-03-08T08:13:16.417Z,31.25
2018-03-08T08:14:25.076Z,31.25
2018-03-08T08:15:33.747Z,31.25
2018-03-08T08:16:42.940Z,31.15
2018-03-08T08:17:52.866Z,31.15
2018-03-08T08:19:02.341Z,31.15
2018-03-08T08:20:11.812Z,31.15
2018-03-08T08:21:21.603Z,31.15
2018-03-08T08:22:30.818Z,31.15
2018-03-08T08:23:40.016Z,31.35
2018-03-08T08:24:49.476Z,31.25
2018-03-08T08:25:58.402Z,31.25
2018-03-08T08:27:07.868Z,31.25
2018-03-08T08:28:17.073Z,31.35
2018-03-08T08:29:26.254Z,31.25
2018-03-08T08:30:35.448Z,31.25
2018-03-08T08:31:44.378Z,31.45
2018-03-08T08:32:53.151Z,31.45
2018-03-08T08:34:01.839Z,31.45
2018-03-08T08:35:11.048Z,31.45
2018-03-08T08:36:20.271Z,31.45
2018-03-08T08:37:28.939Z,31.45
2018-03-08T08:38:38.390Z,31.63
2018-03-08T08:39:47.891Z,31.54
2018-03-08T08:40:57.096Z,31.54
2018-03-08T08:42:06.351Z,31.63
2018-03-08T08:43:15.618Z,31.54
2018-03-08T08:44:24.576Z,31.45
2018-03-08T08:45:33.541Z,31.63
2018-03-08T08:46:42.519Z,31.45
2018-03-08T08:47:52.316Z,31.62
2018-03-08T08:49:01.773Z,31.43
2018-03-08T08:50:10.689Z,31.43
2018-03-08T08:51:19.887Z,31.52
2018-03-08T08:52:28.570Z,31.43
2018-03-08T08:53:37.805Z,31.62
2018-03-08T08:54:47.054Z,31.62
2018-03-08T08:55:55.993Z,31.72
2018-03-08T08:57:05.210Z,31.62
2018-03-08T08:58:13.866Z,31.72
2018-03-08T08:59:22.526Z,31.62
2018-03-08T09:00:31.482Z,31.62
2018-03-08T09:01:40.639Z,31.72
2018-03-08T09:02:49.335Z,31.62
2018-03-08T09:03:58.253Z,31.52
2018-03-08T09:05:07.169Z,31.62
2018-03-08T09:06:16.097Z,31.62
2018-03-08T09:07:25.529Z,31.43
2018-03-08T09:08:34.831Z,31.62
2018-03-08T09:09:44.272Z,31.52
2018-03-08T09:10:53.180Z,31.52
2018-03-08T09:12:01.897Z,31.43
2018-03-08T09:13:11.079Z,31.52
2018-03-08T09:14:19.744Z,31.62
2018-03-08T09:15:28.397Z,31.43
2018-03-08T09:16:37.914Z,31.52
2018-03-08T09:17:47.140Z,31.62
2018-03-08T09:18:56.470Z,31.62
2018-03-08T09:20:05.930Z,31.62
2018-03-08T09:21:14.855Z,31.62
2018-03-08T09:22:24.047Z,31.62
2018-03-08T09:23:32.957Z,31.52
2018-03-08T09:24:41.635Z,31.62
2018-03-08T09:25:50.847Z,31.52
2018-03-08T09:26:59.540Z,31.52
2018-03-08T09:28:08.455Z,31.52
2018-03-08T09:29:17.724Z,31.52
2018-03-08T09:30:26.659Z,31.52
2018-03-08T09:31:36.088Z,31.62
2018-03-08T09:32:44.990Z,31.52
2018-03-08T09:33:53.935Z,31.52
2018-03-08T09:35:02.837Z,31.43
2018-03-08T09:36:11.494Z,31.43
2018-03-08T09:37:20.969Z,31.43
2018-03-08T09:38:31.019Z,31.35
2018-03-08T09:39:39.683Z,31.25
2018-03-08T09:40:48.337Z,31.25
2018-03-08T09:41:57.257Z,31.15
2018-03-08T09:43:05.922Z,31.15
2018-03-08T09:44:15.608Z,31.25
2018-03-08T09:45:25.120Z,31.25
2018-03-08T09:46:34.292Z,31.25
2018-03-08T09:47:43.754Z,31.15
2018-03-08T09:48:52.399Z,31.25
2018-03-08T09:50:01.067Z,31.15
2018-03-08T09:51:10.024Z,31.06
2018-03-08T09:52:19.231Z,31.15
2018-03-08T09:53:28.160Z,31.06
2018-03-08T09:54:37.413Z,31.06
2018-03-08T09:55:46.329Z,31.15
2018-03-08T09:56:54.996Z,30.96
2018-03-08T09:58:03.724Z,31.15
2018-03-08T09:59:12.379Z,30.96
2018-03-08T10:00:21.570Z,31.06
2018-03-08T10:01:31.060Z,31.06
2018-03-08T10:02:40.289Z,31.15
2018-03-08T10:03:49.742Z,31.15
2018-03-08T10:04:58.944Z,31.15
2018-03-08T10:06:07.874Z,31.15
2018-03-08T10:07:17.103Z,31.06
2018-03-08T10:08:26.296Z,31.06
2018-03-08T10:09:35.747Z,31.15
2018-03-08T10:10:45.202Z,31.15
2018-03-08T10:11:54.119Z,30.96
2018-03-08T10:13:03.826Z,31.25
2018-03-08T10:14:12.971Z,31.15
2018-03-08T10:15:21.924Z,31.06
2018-03-08T10:16:31.344Z,30.96
2018-03-08T10:17:40.730Z,30.96
2018-03-08T10:18:49.918Z,30.87
2018-03-08T10:19:58.659Z,30.96
2018-03-08T10:21:07.338Z,30.96
2018-03-08T10:22:16.773Z,30.96
2018-03-08T10:23:25.965Z,30.96
2018-03-08T10:24:35.395Z,30.96
2018-03-08T10:25:44.412Z,30.87
2018-03-08T10:26:53.873Z,30.77
2018-03-08T10:28:03.597Z,30.77
2018-03-08T10:29:12.588Z,30.96
2018-03-08T10:30:21.249Z,30.77
2018-03-08T10:31:29.941Z,30.96
2018-03-08T10:32:38.597Z,30.87
2018-03-08T10:33:47.299Z,30.67
2018-03-08T10:34:56.508Z,30.67
2018-03-08T10:36:05.965Z,30.67
2018-03-08T10:37:14.931Z,30.77
2018-03-08T10:38:23.610Z,30.67
2018-03-08T10:39:32.551Z,30.58
2018-03-08T10:40:44.675Z,30.77
2018-03-08T10:41:54.376Z,30.79
2018-03-08T10:43:03.580Z,30.69
2018-03-08T10:44:12.797Z,30.79
2018-03-08T10:45:22.028Z,30.67
2018-03-08T10:46:31.469Z,30.79
2018-03-08T10:47:40.671Z,30.79
2018-03-08T10:49:02.541Z,30.79
2018-03-08T10:50:11.664Z,30.79
2018-03-08T10:51:20.863Z,30.79
2018-03-08T10:52:30.062Z,30.79
2018-03-08T10:53:39.247Z,30.79
2018-03-08T10:54:48.175Z,30.69
2018-03-08T10:55:57.879Z,30.69
2018-03-08T10:57:07.070Z,30.69
2018-03-08T10:58:16.001Z,30.79
2018-03-08T10:59:25.439Z,30.79
2018-03-08T11:00:34.422Z,30.79
2018-03-08T11:01:43.306Z,30.67
2018-03-08T11:02:54.291Z,30.88
2018-03-08T11:04:02.962Z,30.87
2018-03-08T11:05:12.172Z,30.67
2018-03-08T11:06:20.866Z,30.69
2018-03-08T11:07:29.879Z,30.77
2018-03-08T11:08:38.559Z,30.87
2018-03-08T11:09:47.761Z,30.96
2018-03-08T11:13:29.303Z,30.77
2018-03-08T11:14:38.256Z,30.87
2018-03-08T11:15:47.191Z,30.67
2018-03-08T11:16:56.403Z,30.77
2018-03-08T11:20:37.466Z,30.77
2018-03-08T11:21:46.936Z,30.77
2018-03-08T11:22:55.624Z,30.58
2018-03-08T11:24:04.866Z,30.49
2018-03-08T11:25:14.320Z,30.67
2018-03-08T11:26:23.228Z,30.77
2018-03-08T11:27:32.963Z,30.77
2018-03-08T11:28:42.150Z,30.88
2018-03-08T11:29:51.073Z,30.67
2018-03-08T11:31:00.081Z,30.77
2018-03-08T11:32:09.504Z,30.77
2018-03-08T11:33:18.474Z,30.77
2018-03-08T11:34:27.402Z,30.77
2018-03-08T11:35:36.892Z,30.96
2018-03-08T11:36:45.844Z,30.96
2018-03-08T11:37:54.610Z,30.87
2018-03-08T11:39:05.283Z,30.87
2018-03-08T11:40:14.837Z,31.06
2018-03-08T11:41:24.285Z,30.96
2018-03-08T11:42:33.230Z,30.96
2018-03-08T11:43:42.767Z,31.15
2018-03-08T11:44:51.686Z,31.06
2018-03-08T11:46:01.398Z,31.15
2018-03-08T11:47:10.582Z,31.06
2018-03-08T11:48:19.786Z,31.15
2018-03-08T11:49:28.949Z,31.25
2018-03-08T11:50:37.655Z,31.15
2018-03-08T11:51:46.560Z,31.06
2018-03-08T11:52:55.472Z,31.15
2018-03-08T11:54:04.651Z,31.35
2018-03-08T11:55:13.813Z,31.25
2018-03-08T11:56:22.982Z,31.25
2018-03-08T11:57:31.648Z,31.15
2018-03-08T11:58:41.360Z,31.25
2018-03-08T11:59:50.281Z,31.25
2018-03-08T12:00:59.171Z,31.25
2018-03-08T12:02:08.083Z,31.35
2018-03-08T12:03:16.779Z,31.25
2018-03-08T12:04:26.038Z,31.15
2018-03-08T12:05:35.033Z,31.35
2018-03-08T12:06:44.570Z,31.14
2018-03-08T12:07:53.495Z,31.25
2018-03-08T12:09:02.240Z,31.25
2018-03-08T12:10:11.700Z,31.15
2018-03-08T12:11:20.630Z,31.25
2018-03-08T12:12:29.298Z,31.25
2018-03-08T12:13:38.803Z,31.15
2018-03-08T12:14:47.978Z,31.15
2018-03-08T12:15:57.729Z,31.15
2018-03-08T12:17:07.013Z,31.06
2018-03-08T12:18:15.635Z,31.06
2018-03-08T12:19:25.367Z,31.15
2018-03-08T12:20:34.346Z,31.06
2018-03-08T12:21:43.524Z,31.15
2018-03-08T12:22:52.443Z,31.15
2018-03-08T12:24:01.373Z,31.15
2018-03-08T12:25:10.326Z,31.06
2018-03-08T12:26:19.573Z,31.15
2018-03-08T12:27:28.486Z,31.15
2018-03-08T12:28:37.414Z,30.96
2018-03-08T12:29:46.671Z,31.25
2018-03-08T12:30:55.365Z,31.15
2018-03-08T12:32:04.558Z,31.15
2018-03-08T12:33:13.475Z,31.15
2018-03-08T12:34:22.918Z,30.96
2018-03-08T12:35:32.721Z,31.25
2018-03-08T12:36:42.416Z,31.06
2018-03-08T12:37:51.390Z,31.06
2018-03-08T12:39:00.884Z,31.06
2018-03-08T12:40:09.966Z,31.04
2018-03-08T12:41:19.225Z,31.04
2018-03-08T12:42:28.395Z,31.14
2018-03-08T12:43:37.909Z,31.15
2018-03-08T12:44:47.108Z,31.14
2018-03-08T12:45:56.034Z,31.24
2018-03-08T12:47:05.463Z,31.15
2018-03-08T12:48:14.409Z,31.14
2018-03-08T12:49:23.323Z,31.14
2018-03-08T12:50:32.539Z,31.25
2018-03-08T12:51:41.551Z,31.33
2018-03-08T12:52:50.738Z,31.24
2018-03-08T12:53:59.662Z,31.25
2018-03-08T12:55:08.608Z,31.43
2018-03-08T12:56:17.855Z,31.33
2018-03-08T12:57:27.060Z,31.33
2018-03-08T12:58:36.534Z,31.33
2018-03-08T12:59:46.259Z,31.24
2018-03-08T13:00:55.463Z,31.24
2018-03-08T13:02:05.015Z,31.33
2018-03-08T13:03:13.640Z,31.24
2018-03-08T13:04:22.421Z,31.43
2018-03-08T13:05:31.919Z,31.24
2018-03-08T13:06:40.591Z,31.14
2018-03-08T13:07:49.524Z,31.24
2018-03-08T13:08:58.462Z,31.33
2018-03-08T13:10:07.911Z,31.43
2018-03-08T13:11:17.112Z,31.43
2018-03-08T13:12:25.769Z,31.52
2018-03-08T13:13:35.274Z,31.43
2018-03-08T13:14:44.218Z,31.43
2018-03-08T13:15:53.130Z,31.43
2018-03-08T13:17:01.791Z,31.52
2018-03-08T13:18:10.976Z,31.33
2018-03-08T13:19:20.015Z,31.52
2018-03-08T13:20:29.210Z,31.52
2018-03-08T13:21:38.138Z,31.43
2018-03-08T13:22:47.359Z,31.52
2018-03-08T13:23:56.275Z,31.52
2018-03-08T13:25:04.947Z,31.43
2018-03-08T13:26:13.879Z,31.43
2018-03-08T13:27:22.817Z,31.43
2018-03-08T13:28:31.732Z,31.43
2018-03-08T13:29:40.649Z,31.43
2018-03-08T13:30:49.866Z,31.43
2018-03-08T13:31:59.373Z,31.52
2018-03-08T13:33:08.553Z,31.52
2018-03-08T13:34:17.489Z,31.43
2018-03-08T13:35:26.424Z,31.43
2018-03-08T13:36:35.905Z,31.43
2018-03-08T13:37:44.840Z,31.43
2018-03-08T13:38:54.308Z,31.33
2018-03-08T13:40:03.501Z,31.43
2018-03-08T13:41:12.998Z,31.43
2018-03-08T13:42:21.944Z,31.43
2018-03-08T13:43:30.602Z,31.33
2018-03-08T13:44:40.109Z,31.24
2018-03-08T13:45:49.044Z,31.24
2018-03-08T13:46:58.477Z,31.24
2018-03-08T13:48:07.405Z,31.14
2018-03-08T13:49:16.628Z,31.24
2018-03-08T13:50:26.075Z,31.43
2018-03-08T13:51:35.261Z,31.24
2018-03-08T13:52:44.164Z,31.43
2018-03-08T13:53:53.083Z,31.33
2018-03-08T13:55:01.753Z,31.43
2018-03-08T13:56:11.005Z,31.52
2018-03-08T13:57:20.439Z,31.43
2018-03-08T13:58:29.094Z,31.43
2018-03-08T13:59:38.626Z,31.52
2018-03-08T14:00:48.358Z,31.43
2018-03-08T14:01:57.833Z,31.43
2018-03-08T14:03:06.750Z,31.52
2018-03-08T14:04:15.400Z,31.43
2018-03-08T14:05:24.312Z,31.52
2018-03-08T14:06:33.276Z,31.43
2018-03-08T14:07:42.791Z,31.52
2018-03-08T14:08:51.981Z,31.52
2018-03-08T14:10:00.669Z,31.52
2018-03-08T14:11:10.187Z,31.33
2018-03-08T14:12:20.021Z,31.33
2018-03-08T14:13:28.946Z,31.52
2018-03-08T14:14:38.153Z,31.33
2018-03-08T14:15:47.060Z,31.33
2018-03-08T14:16:56.481Z,31.43
2018-03-08T14:18:05.662Z,31.43
2018-03-08T14:19:14.857Z,31.43
2018-03-08T14:20:23.771Z,31.43
2018-03-08T14:21:32.991Z,31.43
2018-03-08T14:22:41.940Z,31.43
2018-03-08T14:23:50.949Z,31.52
2018-03-08T14:24:59.872Z,31.52
2018-03-08T14:26:09.041Z,31.52
2018-03-08T14:27:18.216Z,31.43
2018-03-08T14:28:27.131Z,31.33
2018-03-08T14:29:36.342Z,31.41
2018-03-08T14:30:45.521Z,31.41
2018-03-08T14:31:55.139Z,31.43
2018-03-08T14:33:04.426Z,31.43
2018-03-08T14:34:13.848Z,31.41
2018-03-08T14:35:22.784Z,31.33
2018-03-08T14:36:31.693Z,31.43
2018-03-08T14:37:40.864Z,31.6
2018-03-08T14:38:50.133Z,31.52
2018-03-08T14:39:59.295Z,31.62
2018-03-08T14:41:08.304Z,31.43
2018-03-08T14:42:18.136Z,31.41
2018-03-08T14:43:27.552Z,31.41
2018-03-08T14:44:37.010Z,31.43
2018-03-08T14:45:45.927Z,31.41
2018-03-08T14:46:55.371Z,31.41
2018-03-08T14:48:05.071Z,31.41
2018-03-08T14:49:13.991Z,31.51
2018-03-08T14:50:22.678Z,31.51
2018-03-08T14:51:31.648Z,31.51
2018-03-08T14:52:40.846Z,31.52
2018-03-08T14:53:49.829Z,31.41
2018-03-08T14:54:58.755Z,31.41
2018-03-08T14:56:07.958Z,31.32
2018-03-08T14:57:16.875Z,31.41
2018-03-08T14:58:26.347Z,31.32
2018-03-08T14:59:35.322Z,31.32
2018-03-08T15:00:45.046Z,31.52
2018-03-08T15:01:53.962Z,31.43
2018-03-08T15:03:03.165Z,31.41
2018-03-08T15:04:12.361Z,31.43
2018-03-08T15:05:21.265Z,31.43
2018-03-08T15:06:30.719Z,31.41
2018-03-08T15:07:40.131Z,31.51
2018-03-08T15:08:49.322Z,31.52
2018-03-08T15:09:58.756Z,31.41
2018-03-08T15:11:08.442Z,31.33
2018-03-08T15:12:17.642Z,31.41
2018-03-08T15:13:26.582Z,31.41
2018-03-08T15:14:35.366Z,31.51
2018-03-08T15:15:44.512Z,31.32
2018-03-08T15:16:53.420Z,31.41
2018-03-08T15:18:02.343Z,31.41
2018-03-08T15:19:11.811Z,31.51
2018-03-08T15:20:21.249Z,31.41
2018-03-08T15:21:30.767Z,31.6
2018-03-08T15:22:40.222Z,31.6
2018-03-08T15:23:49.237Z,31.41
2018-03-08T15:24:58.801Z,31.41
2018-03-08T15:26:08.235Z,31.51
2018-03-08T15:27:17.499Z,31.6
2018-03-08T15:28:26.451Z,31.51
2018-03-08T15:29:35.402Z,31.32
2018-03-08T15:30:44.307Z,31.6
2018-03-08T15:31:53.486Z,31.51
2018-03-08T15:33:02.470Z,31.51
2018-03-08T15:34:11.668Z,31.51
2018-03-08T15:35:21.204Z,31.41
2018-03-08T15:36:29.810Z,31.6
2018-03-08T15:37:39.023Z,31.51
2018-03-08T15:38:48.458Z,31.7
2018-03-08T15:39:57.415Z,31.7
2018-03-08T15:41:06.082Z,31.41
2018-03-08T15:42:15.325Z,31.6
2018-03-08T15:43:24.213Z,31.6
2018-03-08T15:44:33.162Z,31.6
2018-03-08T15:45:42.335Z,31.51
2018-03-08T15:46:51.511Z,31.41
2018-03-08T15:48:00.678Z,31.51
2018-03-08T15:49:09.634Z,31.7
2018-03-08T15:50:19.060Z,31.7
2018-03-08T15:51:27.988Z,31.6
2018-03-08T15:52:36.904Z,31.6
2018-03-08T15:53:45.868Z,31.7
2018-03-08T15:54:55.330Z,31.6
2018-03-08T15:56:04.771Z,31.6
2018-03-08T15:57:13.936Z,31.6
2018-03-08T15:58:22.621Z,31.6
2018-03-08T15:59:31.609Z,31.6
2018-03-08T16:00:40.946Z,31.7
2018-03-08T16:01:50.871Z,31.6
2018-03-08T16:03:00.310Z,31.6
2018-03-08T16:04:09.217Z,31.7
2018-03-08T16:05:18.685Z,31.6
2018-03-08T16:06:27.864Z,31.6
2018-03-08T16:07:37.300Z,31.6
2018-03-08T16:08:45.989Z,31.6
2018-03-08T16:09:55.192Z,31.6
2018-03-08T16:11:04.634Z,31.51
2018-03-08T16:12:14.114Z,31.51
2018-03-08T16:13:23.014Z,31.6
2018-03-08T16:14:32.184Z,31.7
2018-03-08T16:15:41.084Z,31.7
2018-03-08T16:16:50.821Z,31.7
2018-03-08T16:17:59.463Z,31.7
2018-03-08T16:19:08.656Z,31.6
2018-03-08T16:20:17.596Z,31.6
2018-03-08T16:21:26.270Z,31.6
2018-03-08T16:22:35.504Z,31.7
2018-03-08T16:23:45.031Z,31.7
2018-03-08T16:24:54.258Z,31.8
2018-03-08T16:26:03.446Z,31.8
2018-03-08T16:27:12.883Z,31.8
2018-03-08T16:28:21.573Z,31.6
2018-03-08T16:29:30.745Z,31.7
2018-03-08T16:30:39.935Z,31.7
2018-03-08T16:31:49.114Z,31.7
2018-03-08T16:32:58.275Z,31.6
2018-03-08T16:34:07.216Z,31.7
2018-03-08T16:35:16.643Z,31.6
2018-03-08T16:36:25.552Z,31.59
2018-03-08T16:37:35.299Z,31.7
2018-03-08T16:38:44.214Z,31.69
2018-03-08T16:39:53.651Z,31.6
2018-03-08T16:41:02.834Z,31.59
2018-03-08T16:42:11.734Z,31.7
2018-03-08T16:43:20.469Z,31.7
2018-03-08T16:44:29.159Z,31.69
2018-03-08T16:45:37.805Z,31.69
2018-03-08T16:46:47.034Z,31.69
2018-03-08T16:47:55.947Z,31.6
2018-03-08T16:49:04.907Z,31.69
2018-03-08T16:50:14.147Z,31.78
2018-03-08T16:51:23.339Z,31.78
2018-03-08T16:52:32.584Z,31.69
2018-03-08T16:53:42.304Z,31.7
2018-03-08T16:54:51.465Z,31.69
2018-03-08T16:56:00.899Z,31.78
2018-03-08T16:57:10.320Z,31.59
2018-03-08T16:58:19.567Z,31.69
2018-03-08T16:59:28.997Z,31.78
2018-03-08T17:00:37.922Z,31.8
2018-03-08T17:01:47.104Z,31.78
2018-03-08T17:02:56.270Z,31.78
2018-03-08T17:04:06.016Z,31.88
2018-03-08T17:05:14.934Z,31.69
2018-03-08T17:06:23.817Z,31.69
2018-03-08T17:07:32.813Z,31.78
2018-03-08T17:08:42.244Z,31.78
2018-03-08T17:09:50.954Z,31.78
2018-03-08T17:10:59.653Z,31.78
2018-03-08T17:12:09.104Z,31.69
2018-03-08T17:13:18.036Z,31.78
2018-03-08T17:14:26.647Z,31.78
2018-03-08T17:15:36.370Z,31.78
2018-03-08T17:16:45.791Z,31.69
2018-03-08T17:17:55.195Z,31.69
2018-03-08T17:19:04.403Z,31.78
2018-03-08T17:20:13.322Z,31.69
2018-03-08T17:21:22.213Z,31.78
2018-03-08T17:22:31.142Z,31.69
2018-03-08T17:23:40.048Z,31.69
2018-03-08T17:24:48.930Z,31.59
2018-03-08T17:25:58.438Z,31.69
2018-03-08T17:27:07.329Z,31.59
2018-03-08T17:28:16.259Z,31.69
2018-03-08T17:29:25.489Z,31.59
2018-03-08T17:30:35.173Z,31.78
2018-03-08T17:31:44.346Z,31.69
2018-03-08T17:32:53.252Z,31.69
2018-03-08T17:34:02.690Z,31.59
2018-03-08T17:35:11.855Z,31.78
2018-03-08T17:36:21.012Z,31.69
2018-03-08T17:37:29.922Z,31.69
2018-03-08T17:38:38.559Z,31.69
2018-03-08T17:39:47.448Z,31.78
2018-03-08T17:40:56.097Z,31.69
2018-03-08T17:42:05.037Z,31.78
2018-03-08T17:43:13.699Z,31.69
2018-03-08T17:44:22.600Z,31.69
2018-03-08T17:45:31.760Z,31.78
2018-03-08T17:46:40.678Z,31.78
2018-03-08T17:47:49.581Z,31.78
2018-03-08T17:48:58.233Z,31.78
2018-03-08T17:50:07.182Z,31.88
2018-03-08T17:51:16.095Z,31.69
2018-03-08T17:52:25.264Z,31.88
2018-03-08T17:53:33.905Z,31.78
2018-03-08T17:54:43.074Z,31.88
2018-03-08T17:55:52.272Z,31.88
2018-03-08T17:57:01.168Z,31.88
2018-03-08T17:58:10.073Z,31.88
2018-03-08T17:59:19.242Z,31.69
2018-03-08T18:00:27.912Z,31.88
2018-03-08T18:01:36.834Z,31.69
2018-03-08T18:02:45.994Z,31.88
2018-03-08T18:03:55.148Z,31.88
2018-03-08T18:05:04.052Z,31.69
2018-03-08T18:06:12.970Z,31.88
2018-03-08T18:07:21.636Z,31.88
2018-03-08T18:08:30.572Z,31.98
2018-03-08T18:09:39.978Z,31.88
2018-03-08T18:10:49.139Z,31.88
2018-03-08T18:11:58.055Z,31.78
2018-03-08T18:13:06.950Z,31.78
2018-03-08T18:14:15.878Z,31.78
2018-03-08T18:15:24.589Z,31.78
2018-03-08T18:16:35.806Z,31.78
2018-03-08T18:17:46.101Z,31.78
2018-03-08T18:18:55.329Z,31.88
2018-03-08T18:20:03.972Z,31.69
2018-03-08T18:21:13.607Z,31.69
2018-03-08T18:22:23.018Z,31.78
2018-03-08T18:23:32.694Z,31.78
2018-03-08T18:24:42.088Z,31.78
2018-03-08T18:25:51.272Z,31.78
2018-03-08T18:27:00.221Z,31.78
2018-03-08T18:28:09.114Z,31.78
2018-03-08T18:29:18.293Z,31.69
2018-03-08T18:30:27.251Z,31.78
2018-03-08T18:31:36.693Z,31.69
2018-03-08T18:32:45.595Z,31.69
2018-03-08T18:33:54.873Z,31.69
2018-03-08T18:35:04.428Z,31.78
2018-03-08T18:36:14.101Z,31.69
2018-03-08T18:37:23.803Z,31.78
2018-03-08T18:38:32.720Z,31.88
2018-03-08T18:39:41.892Z,31.78
2018-03-08T18:40:51.314Z,31.78
2018-03-08T18:42:00.490Z,31.69
2018-03-08T18:43:09.947Z,31.78
2018-03-08T18:44:19.127Z,31.69
2018-03-08T18:45:28.032Z,31.69
2018-03-08T18:46:37.237Z,31.78
2018-03-08T18:47:46.972Z,31.88
2018-03-08T18:48:56.385Z,31.78
2018-03-08T18:50:05.325Z,31.78
2018-03-08T18:51:14.183Z,31.78
2018-03-08T18:52:22.885Z,31.69
2018-03-08T18:53:31.800Z,31.78
2018-03-08T18:54:40.740Z,31.69
2018-03-08T18:55:49.662Z,31.59
2018-03-08T18:56:58.610Z,31.59
2018-03-08T18:58:07.506Z,31.7
2018-03-08T18:59:17.375Z,31.51
2018-03-08T19:00:26.021Z,31.6
2018-03-08T19:01:35.200Z,31.7
2018-03-08T19:02:44.660Z,31.51
2018-03-08T19:03:53.856Z,31.6
2018-03-08T19:05:03.108Z,31.6
2018-03-08T19:06:12.017Z,31.6
2018-03-08T19:07:20.679Z,31.6
2018-03-08T19:08:29.965Z,31.51
2018-03-08T19:09:38.866Z,31.6
2018-03-08T19:10:47.800Z,31.6
2018-03-08T19:11:56.486Z,31.49
2018-03-08T19:13:05.993Z,31.6
2018-03-08T19:14:15.793Z,31.7
2018-03-08T19:15:24.723Z,31.59
2018-03-08T19:16:33.928Z,31.8
2018-03-08T19:17:43.114Z,31.69
2018-03-08T19:18:52.270Z,31.69
2018-03-08T19:20:01.172Z,31.88
2018-03-08T19:21:10.365Z,31.78
2018-03-08T19:22:19.620Z,31.78
2018-03-08T19:23:28.545Z,31.9
2018-03-08T19:24:38.029Z,31.88
2018-03-08T19:25:46.688Z,31.7
2018-03-08T19:26:55.895Z,31.9
2018-03-08T19:28:05.153Z,31.98
2018-03-08T19:29:14.153Z,31.88
2018-03-08T19:30:22.841Z,31.78
2018-03-08T19:31:31.526Z,31.88
2018-03-08T19:32:40.559Z,31.98
2018-03-08T19:33:49.556Z,31.98
2018-03-08T19:34:59.080Z,31.98
2018-03-08T19:36:08.293Z,31.98
2018-03-08T19:37:18.034Z,31.98
2018-03-08T19:38:27.801Z,31.98
2018-03-08T19:39:37.015Z,31.88
2018-03-08T19:40:46.506Z,31.88
2018-03-08T19:41:55.513Z,31.88
2018-03-08T19:43:04.193Z,31.98
2018-03-08T19:44:13.109Z,31.88
2018-03-08T19:45:22.293Z,31.88
2018-03-08T19:46:32.212Z,31.78
2018-03-08T19:47:41.406Z,32.07
2018-03-08T19:48:50.610Z,32.07
2018-03-08T19:49:59.601Z,32.07
2018-03-08T19:51:09.370Z,31.98
2018-03-08T19:52:18.610Z,31.98
2018-03-08T19:53:27.779Z,32.17
2018-03-08T19:54:36.782Z,32.17
2018-03-08T19:55:46.037Z,32.17
2018-03-08T19:56:55.121Z,32.17
2018-03-08T19:58:04.233Z,32.07
2018-03-08T19:59:13.738Z,32.17
2018-03-08T20:00:22.976Z,32.17
2018-03-08T20:01:32.266Z,31.98
2018-03-08T20:02:41.274Z,32.17
2018-03-08T20:03:50.213Z,32.17
2018-03-08T20:04:59.179Z,32.07
2018-03-08T20:06:08.429Z,32.07
2018-03-08T20:07:17.189Z,32.07
2018-03-08T20:08:26.242Z,32.07
2018-03-08T20:09:35.287Z,32.07
2018-03-08T20:10:44.637Z,31.98
2018-03-08T20:11:54.246Z,32.26
2018-03-08T20:13:02.952Z,32.17
2018-03-08T20:14:12.010Z,32.17
2018-03-08T20:15:21.529Z,32.07
2018-03-08T20:16:31.048Z,32.26
2018-03-08T20:17:39.789Z,32.26
2018-03-08T20:18:49.315Z,31.98
2018-03-08T20:19:58.349Z,32.17
2018-03-08T20:21:07.460Z,32.17
2018-03-08T20:22:16.284Z,32.36
2018-03-08T20:23:25.402Z,32.46
2018-03-08T20:24:34.927Z,32.26
2018-03-08T20:25:43.937Z,32.17
2018-03-08T20:26:52.706Z,32.17
2018-03-08T20:28:01.667Z,32.56
2018-03-08T20:29:10.884Z,32.26
2018-03-08T20:30:19.555Z,32.46
2018-03-08T20:31:28.493Z,32.46
2018-03-08T20:32:37.433Z,32.56
2018-03-08T20:33:46.395Z,32.36
2018-03-08T20:34:55.911Z,32.46
2018-03-08T20:36:04.843Z,32.46
2018-03-08T20:37:13.760Z,32.56
2018-03-08T20:38:22.990Z,32.56
2018-03-08T20:39:32.167Z,32.46
2018-03-08T20:40:41.345Z,32.56
2018-03-08T20:41:50.533Z,32.26
2018-03-08T20:42:59.201Z,32.56
2018-03-08T20:44:07.871Z,32.46
2018-03-08T20:45:17.094Z,32.36
2018-03-08T20:46:26.019Z,32.46
2018-03-08T20:47:34.949Z,32.56
2018-03-08T20:48:44.143Z,32.56
2018-03-08T20:49:53.570Z,32.56
2018-03-08T20:51:02.744Z,32.75
2018-03-08T20:52:11.655Z,32.65
2018-03-08T20:53:21.075Z,32.46
2018-03-08T20:54:29.978Z,32.65
2018-03-08T20:55:39.409Z,32.56
2018-03-08T20:56:49.097Z,32.56
2018-03-08T20:57:58.272Z,32.46
2018-03-08T20:59:07.474Z,32.84
2018-03-08T21:00:16.902Z,32.94
2018-03-08T21:01:25.827Z,33.03
2018-03-08T21:02:34.998Z,32.94
2018-03-08T21:03:43.898Z,32.75
2018-03-08T21:04:52.831Z,32.65
2018-03-08T21:06:01.817Z,32.56
2018-03-08T21:07:11.016Z,32.65
2018-03-08T21:08:19.674Z,33.13
2018-03-08T21:09:28.567Z,32.94
2018-03-08T21:10:37.455Z,33.03
2018-03-08T21:11:46.619Z,32.94
2018-03-08T21:12:55.816Z,32.94
2018-03-08T21:14:04.763Z,33.03
2018-03-08T21:15:13.986Z,33.03
2018-03-08T21:16:23.464Z,32.84
2018-03-08T21:17:32.384Z,32.94
2018-03-08T21:18:41.047Z,32.94
2018-03-08T21:19:50.204Z,32.75
2018-03-08T21:20:59.129Z,32.94
2018-03-08T21:22:08.101Z,33.03
2018-03-08T21:23:17.267Z,33.03
2018-03-08T21:24:26.431Z,32.73
2018-03-08T21:25:35.860Z,32.94
2018-03-08T21:26:44.781Z,33.03
2018-03-08T21:27:53.426Z,33.03
2018-03-08T21:29:02.584Z,32.94
2018-03-08T21:30:11.257Z,32.84
2018-03-08T21:31:20.189Z,32.75
2018-03-08T21:32:29.344Z,32.75
2018-03-08T21:33:38.539Z,32.94
2018-03-08T21:34:47.693Z,33.02
2018-03-08T21:35:56.589Z,32.94
2018-03-08T21:37:05.493Z,32.94
2018-03-08T21:38:14.417Z,33.03